KBLM/BLM METAR and TAF weather

Enter ICAO airport designator
Station Type Date Time Source
KBLM METAR 2018/10/21 05:56 UTC NOAA

KBLM 210556Z AUTO 27008KT 10SM BKN090 08/06 A2964 RMK AO2 SLP041 T00780056 10122 20078 50001


Station Type Date Time Source
KBLM Decoded METAR 2018/10/21 05:56 UTC NOAA

Belmar-Farmingdale, NJ, United States (KBLM) 40-11N 074-08W
Oct 21, 2018 - 01:56 AM EDT / 2018.10.21 0556 UTC
Wind: from the W (270 degrees) at 9 MPH (8 KT):0
Visibility: 10 mile(s):0
Sky conditions: mostly cloudy
Temperature: 46.0 F (7.8 C)
Dew Point: 42.1 F (5.6 C)
Relative Humidity: 85%
Pressure (altimeter): 29.64 in. Hg (1003 hPa)
Pressure tendency: 0.00 inches (0.1 hPa) higher than three hours ago
ob: KBLM 210556Z AUTO 27008KT 10SM BKN090 08/06 A2964 RMK AO2 SLP041 T00780056 10122 20078 50001
cycle: 6

Station Type Date Time Source
KBLM TAF UTC NOAA

Error!


Example: see airport list